Airfield :
LOGIN :

Register | Disclaimer

   EN    FR    IT 

 










Legend :    VFR   Marginal VFR   IFR   Intensive IFR   Very Intensive IFR
Visi :
Ceiling :
>= 8 km
>= 3000ft
5 to 8 km
1000 to 3000 ft
1500m to 5 km
500 to 1000 ft
800 to 1500m
200 to 500 ft
< 800m
< 200 ft
Symbols :   Thunderstorms  Fog  Heavy snow  Heavy precipitations  Wind > 20 kt
SIGMETs :     Misc.  Thunderstorms  Icing  Turbulence  Mountain Waves  Volcanic Ashes







- Airport Elevation : 72 ft
- IATA code : UDE


EHVK - Volkel Airbase

CURRENT METAR :
  • 190948Z AUTO 20009KT 150V230 9999 FEW018 08/07 Q1011 BLU 20010KT 9999 BKN018

EXPIRED METARs :
  • 190936Z AUTO 20010KT 170V240 9999 OVC017 08/07 Q1011 WHT 20010KT 9999 BKN018
  • 190925Z AUTO 20010KT 170V240 9999 OVC018 08/07 Q1011 WHT 20010KT 9999 FEW010 SCT013 BKN015
  • 190859Z AUTO 19008KT 150V240 9999 FEW014 OVC016 08/07 Q1011 WHT 20010KT 9999 FEW010 SCT013 BKN015
  • 190855Z AUTO 19008KT 150V240 9999 SCT013 OVC016 08/07 Q1011 GRN 20010KT 9999 FEW010 SCT013 BKN015
  • 190847Z AUTO 20010KT 170V230 9999 SCT013 OVC015 07/07 Q1011 GRN 20010KT 9999 FEW010 SCT013 BKN015
  • 190827Z AUTO 20010KT 170V230 9999 SCT014 OVC016 07/07 Q1011 GRN 20010KT 9999 FEW010 SCT013 BKN015
  • 190825Z AUTO 20009KT 160V230 9999 OVC015 07/07 Q1011 WHT 20010KT 9999 FEW010 SCT013 BKN015
  • 190815Z AUTO 19009KT 160V230 9999 FEW012 OVC015 07/07 Q1011 WHT 20010KT 9999 SCT007 BKN010 TEMPO 3000 -DZRA FEW004 SCT005 BKN007
  • 190759Z AUTO 19009KT 160V230 9999 FEW010 BKN014 BKN016 07/07 Q1010 GRN 20010KT 9999 SCT007 BKN010 TEMPO 3000 -DZRA FEW004 SCT005 BKN007
  • 190755Z AUTO 19009KT 160V230 9999 FEW010 SCT015 BKN035 07/07 Q1010 WHT 20010KT 9999 SCT007 BKN010 TEMPO 3000 -DZRA FEW004 SCT005 BKN007
  • 190741Z AUTO 20009KT 160V230 9999 FEW011 BKN014 BKN016 07/06 Q1010 GRN 20010KT 9999 SCT007 BKN010 TEMPO 3000 -DZRA FEW004 SCT005 BKN007
  • 190729Z AUTO 20009KT 160V240 8000 BR FEW004 BKN008 OVC010 07/06 Q1010 GRN 20010KT 9999 SCT007 BKN010 TEMPO 3000 -DZRA FEW004 SCT005 BKN007
  • 190720Z AUTO 20009KT 170V240 7000 BR FEW005 BKN007 BKN008 07/06 Q1010 GRN 20010KT 9999 SCT007 BKN010 TEMPO 3000 -DZRA FEW004 SCT005 BKN007
  • 190705Z AUTO 20009KT 170V230 9999 FEW005 SCT007 BKN008 07/06 Q1010 GRN 20010KT 9999 SCT007 BKN010 TEMPO 3000 -DZRA FEW004 SCT005 BKN007
  • 190658Z AUTO 20009KT 160V230 9999 FEW005 SCT006 BKN008 07/06 Q1010 YLO 20010KT 9999 SCT007 BKN010 TEMPO 3000 -DZRA FEW004 SCT005 BKN007
  • 190655Z AUTO 20009KT 160V230 9999 FEW005 BKN007 OVC008 07/06 Q1010 GRN 20010KT 9999 SCT007 BKN010 TEMPO 3000 -DZRA FEW004 SCT005 BKN007

TAF TAF EHVK
Valid from the 19 at 10:00 until the 19 at 22:00 UTC


190917Z 1910/1922 19010KT 9999 BKN016
PROB30
TEMPO 1914/1922 20013G23KT FEW010 SCT015CB BKN025
No reported NOTAMs for that airfield.



MET'MAP, your aeronautical weather chart ! - Copyright ORBIFLY December 2007 - Disclaimer

ORBIFLY MET'MAP TEAM :

Programming & Development : Alexandra Zaïnal
Concept & Development : Baudouin d'Aumeries
Co-Development & Prog : Marc-Olivier Méhu
Technical & hardware support : Manuel Goepfert

Contact : metmap@orbifly.com




SOURCES & CREDITS :

   NOAA